Terminal Aerodrome Forecast
Issued by NWS

Home | Current Version | Previous Version | Graphics & Text | Print | Product List | Glossary On
Versions: 1 2 3 4 5 6 7 8 9 10 11 12 13 14 15 16 17 18
000
FTUS43 KTOP 281738
TAFMHK
TAF
KMHK 281738Z 2818/2918 20014G21KT P6SM FEW070
     FM290100 19006KT P6SM VCTS SCT060CB
      TEMPO 2902/2906 VRB15G25KT 4SM -TSRA BR BKN040CB
     FM290800 03008KT P6SM SCT040 BKN150=

USA.gov is the U.S. government's official web portal to all federal, state and local government web resources and services.